Time;durP1;ratioP1;P1;durP2;ratioP2;P2;SDS_P1;SDS_P2;PMS_P1;PMS_P2;Temp;Humidity;BMP_temperature;BMP_pressure;BME280_temperature;BME280_humidity;BME280_pressure;Samples;Min_cycle;Max_cycle;Signal;HPM_P1;HPM_P2
2023/05/08 00:01:12;;;;;;;4.50;4.20;;;11.40;99.90;;;;;;4982972;28;20475;-66
2023/05/08 00:03:40;;;;;;;4.90;4.60;;;11.40;99.90;;;;;;4980001;28;20493;-66
2023/05/08 00:06:09;;;;;;;4.27;3.87;;;11.40;99.90;;;;;;4979061;28;20507;-66
2023/05/08 00:08:38;;;;;;;5.13;4.80;;;11.40;99.90;;;;;;4982069;28;20876;-66
2023/05/08 00:11:06;;;;;;;5.27;4.83;;;11.30;99.90;;;;;;4981371;28;20483;-66
2023/05/08 00:13:34;;;;;;;5.00;4.60;;;11.30;99.90;;;;;;4984310;28;20469;-66
2023/05/08 00:16:03;;;;;;;4.70;4.40;;;11.30;99.90;;;;;;4974415;28;20495;-67
2023/05/08 00:18:31;;;;;;;4.90;4.60;;;11.20;99.90;;;;;;4977431;28;20497;-66
2023/05/08 00:20:59;;;;;;;5.27;4.80;;;11.20;99.90;;;;;;4977922;28;20883;-66
2023/05/08 00:23:27;;;;;;;4.90;4.50;;;11.20;99.90;;;;;;4980651;28;20489;-66
2023/05/08 00:25:55;;;;;;;5.10;4.70;;;11.10;99.90;;;;;;4974720;28;20489;-66
2023/05/08 00:28:23;;;;;;;5.40;5.07;;;11.10;99.90;;;;;;4980038;28;20627;-66
2023/05/08 00:30:51;;;;;;;5.50;5.10;;;11.00;99.90;;;;;;4981778;28;20465;-66
2023/05/08 00:33:21;;;;;;;5.00;4.70;;;11.00;99.90;;;;;;4974914;28;20466;-66
2023/05/08 00:35:49;;;;;;;4.93;4.63;;;10.90;99.90;;;;;;4972614;28;20500;-66
2023/05/08 00:38:17;;;;;;;5.03;4.63;;;10.90;99.90;;;;;;4973931;28;20478;-66
2023/05/08 00:40:45;;;;;;;5.27;4.87;;;10.90;99.90;;;;;;4969078;28;23017;-66
2023/05/08 00:43:12;;;;;;;4.53;4.23;;;10.80;99.90;;;;;;4972792;28;20558;-66
2023/05/08 00:45:41;;;;;;;4.50;4.20;;;10.80;99.90;;;;;;4984128;28;20504;-66
2023/05/08 00:48:09;;;;;;;5.37;4.97;;;10.80;99.90;;;;;;4981645;28;21005;-67
2023/05/08 00:50:38;;;;;;;5.37;4.97;;;10.80;99.90;;;;;;4977525;28;20493;-66
2023/05/08 00:53:06;;;;;;;5.17;4.77;;;10.70;99.90;;;;;;4976382;28;20470;-66
2023/05/08 00:55:34;;;;;;;5.07;4.67;;;10.70;99.90;;;;;;4980425;28;20505;-66
2023/05/08 00:58:02;;;;;;;5.57;5.17;;;10.70;99.90;;;;;;4980881;28;21006;-66
2023/05/08 01:00:32;;;;;;;5.10;4.70;;;10.70;99.90;;;;;;4974907;28;20485;-66
2023/05/08 01:03:00;;;;;;;4.90;4.60;;;10.60;99.90;;;;;;4975016;28;20477;-66
2023/05/08 01:05:29;;;;;;;5.23;4.93;;;10.60;99.90;;;;;;4975146;28;21026;-66
2023/05/08 01:07:59;;;;;;;4.73;4.33;;;10.60;99.90;;;;;;4978436;28;20935;-66
2023/05/08 01:10:32;;;;;;;4.67;4.37;;;10.50;99.90;;;;;;4979478;28;20499;-66
2023/05/08 01:13:09;;;;;;;5.03;4.63;;;10.50;99.90;;;;;;4982951;28;20921;-66
2023/05/08 01:15:43;;;;;;;5.03;4.70;;;10.40;99.90;;;;;;4979797;28;20476;-66
2023/05/08 01:18:17;;;;;;;4.97;4.67;;;10.40;99.90;;;;;;4984318;28;20511;-66
2023/05/08 01:20:51;;;;;;;5.10;4.70;;;10.40;99.90;;;;;;4978748;28;20473;-66
2023/05/08 01:23:43;;;;;;;5.10;4.70;;;10.40;99.90;;;;;;4981151;28;20472;-66
2023/05/08 01:26:49;;;;;;;5.07;4.77;;;10.40;99.90;;;;;;4983277;28;20492;-67
2023/05/08 01:29:57;;;;;;;4.80;4.50;;;10.30;99.90;;;;;;4996210;28;20469;-69
2023/05/08 01:32:29;;;;;;;5.17;4.77;;;10.30;99.90;;;;;;4968018;28;20470;-67
2023/05/08 01:35:03;;;;;;;5.17;4.83;;;10.20;99.90;;;;;;4977336;28;20465;-67
2023/05/08 01:37:38;;;;;;;5.30;4.90;;;10.20;99.90;;;;;;4980499;28;20511;-67
2023/05/08 01:40:17;;;;;;;5.07;4.57;;;10.20;99.90;;;;;;4974667;28;20496;-67
2023/05/08 01:42:50;;;;;;;5.03;4.73;;;10.10;99.90;;;;;;4973485;28;20844;-67
2023/05/08 01:45:23;;;;;;;5.10;4.70;;;10.10;99.90;;;;;;4971236;28;20500;-67
2023/05/08 01:48:00;;;;;;;5.27;4.77;;;10.10;99.90;;;;;;4977818;28;20995;-67
2023/05/08 01:50:35;;;;;;;4.93;4.63;;;10.10;99.90;;;;;;4976094;28;20496;-66
2023/05/08 01:53:09;;;;;;;5.70;5.20;;;10.00;99.90;;;;;;4982165;28;20479;-66
2023/05/08 01:55:40;;;;;;;5.80;5.40;;;10.00;99.90;;;;;;4978073;28;20560;-66
2023/05/08 01:58:11;;;;;;;5.70;5.30;;;10.00;99.90;;;;;;4976219;28;20986;-66
2023/05/08 02:00:41;;;;;;;5.43;5.03;;;10.00;99.90;;;;;;4977939;28;21922;-66
2023/05/08 02:03:16;;;;;;;4.90;4.53;;;10.00;99.90;;;;;;4977077;28;20474;-67
2023/05/08 02:05:46;;;;;;;5.33;4.93;;;10.00;99.90;;;;;;4973609;28;20607;-66
2023/05/08 02:08:15;;;;;;;5.30;4.90;;;9.90;99.90;;;;;;4971831;28;20477;-66
2023/05/08 02:10:44;;;;;;;5.37;4.97;;;9.90;99.90;;;;;;4975545;28;20478;-66
2023/05/08 02:13:17;;;;;;;5.30;4.90;;;9.80;99.90;;;;;;4976443;28;20956;-66
2023/05/08 02:15:48;;;;;;;5.00;4.70;;;9.80;99.90;;;;;;4978526;28;20481;-66
2023/05/08 02:18:20;;;;;;;5.47;5.10;;;9.80;99.90;;;;;;4978720;28;20934;-66
2023/05/08 02:20:50;;;;;;;5.57;5.17;;;9.70;99.90;;;;;;4980126;28;20472;-66
2023/05/08 02:23:19;;;;;;;5.50;5.00;;;9.70;99.90;;;;;;4986039;28;20480;-66
2023/05/08 02:25:48;;;;;;;5.77;5.37;;;9.70;99.90;;;;;;4980787;28;20820;-66
2023/05/08 02:28:17;;;;;;;5.33;5.03;;;9.70;99.90;;;;;;4974325;28;20475;-66
2023/05/08 02:30:48;;;;;;;5.30;4.90;;;9.60;99.90;;;;;;4972226;28;20998;-65
2023/05/08 02:33:19;;;;;;;5.53;5.13;;;9.60;99.90;;;;;;4977798;28;20481;-65
2023/05/08 02:35:49;;;;;;;6.23;5.73;;;9.60;99.90;;;;;;4973239;28;20496;-66
2023/05/08 02:38:20;;;;;;;5.00;4.70;;;9.50;99.90;;;;;;4971355;28;20474;-65
2023/05/08 02:40:52;;;;;;;6.00;5.50;;;9.50;99.90;;;;;;4969202;28;21128;-66
2023/05/08 02:43:20;;;;;;;6.27;5.67;;;9.50;99.90;;;;;;4968090;28;21071;-66
2023/05/08 02:45:55;;;;;;;5.80;5.40;;;9.40;99.90;;;;;;4972800;28;20511;-66
2023/05/08 02:48:31;;;;;;;6.00;5.50;;;9.40;99.90;;;;;;4971768;28;20468;-65
2023/05/08 02:51:07;;;;;;;5.20;4.90;;;9.30;99.90;;;;;;4970338;28;20465;-66
2023/05/08 02:53:40;;;;;;;5.90;5.50;;;9.30;99.90;;;;;;4970870;28;20484;-65
2023/05/08 02:56:15;;;;;;;5.97;5.47;;;9.30;99.90;;;;;;4972837;28;20498;-66
2023/05/08 02:58:49;;;;;;;6.30;5.80;;;9.20;99.90;;;;;;4970835;28;20487;-66
2023/05/08 03:01:25;;;;;;;6.07;5.60;;;9.20;99.90;;;;;;4972321;28;20470;-66
2023/05/08 03:04:02;;;;;;;5.70;5.30;;;9.20;99.90;;;;;;4976076;28;20509;-66
2023/05/08 03:06:40;;;;;;;6.40;5.90;;;9.20;99.90;;;;;;4976182;28;20504;-66
2023/05/08 03:09:12;;;;;;;6.50;6.10;;;9.10;99.90;;;;;;4979439;28;20477;-65
2023/05/08 03:11:42;;;;;;;6.03;5.53;;;9.10;99.90;;;;;;4973371;28;20473;-66
2023/05/08 03:14:11;;;;;;;6.53;5.93;;;9.10;99.90;;;;;;4975602;28;20550;-65
2023/05/08 03:16:44;;;;;;;6.30;5.90;;;9.00;99.90;;;;;;4988499;28;20485;-66
2023/05/08 03:19:21;;;;;;;6.30;5.80;;;9.00;99.90;;;;;;4991008;28;20568;-65
2023/05/08 03:21:53;;;;;;;6.17;5.77;;;9.00;99.90;;;;;;4979475;28;21098;-65
2023/05/08 03:24:23;;;;;;;7.00;6.50;;;9.00;99.90;;;;;;4981299;28;20477;-65
2023/05/08 03:26:52;;;;;;;6.40;5.80;;;8.90;99.90;;;;;;4978366;28;20500;-65
2023/05/08 03:29:21;;;;;;;6.83;6.33;;;8.90;99.90;;;;;;4981670;28;20497;-66
2023/05/08 03:31:51;;;;;;;7.13;6.57;;;8.90;99.90;;;;;;4999858;28;20454;-66
2023/05/08 03:34:23;;;;;;;6.83;6.33;;;8.90;99.90;;;;;;4996836;28;20470;-65
2023/05/08 03:36:51;;;;;;;6.63;6.13;;;8.90;99.90;;;;;;4974185;28;20524;-65
2023/05/08 03:39:19;;;;;;;6.90;6.43;;;8.80;99.90;;;;;;4975198;28;20844;-65
2023/05/08 03:41:48;;;;;;;6.90;6.40;;;8.80;99.90;;;;;;4973723;28;21790;-65
2023/05/08 03:44:17;;;;;;;6.37;5.97;;;8.80;99.90;;;;;;4974985;28;21081;-66
2023/05/08 03:46:47;;;;;;;7.00;6.50;;;8.80;99.90;;;;;;4973794;28;20511;-66
2023/05/08 03:49:17;;;;;;;6.73;6.23;;;8.80;99.90;;;;;;4978711;28;20481;-66
2023/05/08 03:51:47;;;;;;;6.30;5.90;;;8.70;99.90;;;;;;4974077;28;20477;-67
2023/05/08 03:54:15;;;;;;;6.90;6.20;;;8.80;99.90;;;;;;4977217;28;20482;-65
2023/05/08 03:56:44;;;;;;;6.97;6.33;;;8.80;99.90;;;;;;4977286;28;20484;-65
2023/05/08 03:59:17;;;;;;;7.07;6.47;;;8.80;99.90;;;;;;4972429;28;20642;-66
2023/05/08 04:01:53;;;;;;;7.17;6.57;;;8.70;99.90;;;;;;4978315;28;21158;-67
2023/05/08 04:04:33;;;;;;;6.70;6.20;;;8.70;99.90;;;;;;4994241;28;20477;-66
2023/05/08 04:07:06;;;;;;;6.67;6.17;;;8.70;99.90;;;;;;4992177;28;20516;-66
2023/05/08 04:09:38;;;;;;;5.80;5.40;;;8.70;99.90;;;;;;4977498;28;20500;-65
2023/05/08 04:12:14;;;;;;;7.00;6.50;;;8.70;99.90;;;;;;4971417;28;20465;-68
2023/05/08 04:14:48;;;;;;;7.30;6.70;;;8.70;99.90;;;;;;4970041;28;20469;-66
2023/05/08 04:17:22;;;;;;;7.23;6.63;;;8.70;99.90;;;;;;4967962;28;20612;-66
2023/05/08 04:20:00;;;;;;;6.37;5.90;;;8.70;99.90;;;;;;4970786;28;20488;-66
2023/05/08 04:22:31;;;;;;;7.30;6.70;;;8.70;99.90;;;;;;4971628;28;20480;-66
2023/05/08 04:25:02;;;;;;;6.83;6.33;;;8.70;99.90;;;;;;4973848;28;20473;-66
2023/05/08 04:27:31;;;;;;;6.70;6.20;;;8.70;99.90;;;;;;4974832;28;21036;-66
2023/05/08 04:29:59;;;;;;;7.10;6.50;;;8.70;99.90;;;;;;4969343;28;20516;-66
2023/05/08 04:32:29;;;;;;;7.20;6.70;;;8.70;99.90;;;;;;4966478;28;20469;-66
2023/05/08 04:34:58;;;;;;;7.37;6.67;;;8.70;99.90;;;;;;4971909;28;20560;-66
2023/05/08 04:37:30;;;;;;;6.23;5.77;;;8.70;99.90;;;;;;4977236;28;21285;-66
2023/05/08 04:39:58;;;;;;;7.10;6.60;;;8.70;99.90;;;;;;4971516;28;20523;-65
2023/05/08 04:42:26;;;;;;;6.73;6.23;;;8.70;99.90;;;;;;4970216;28;20474;-66
2023/05/08 04:44:54;;;;;;;7.23;6.63;;;8.70;99.90;;;;;;4969982;28;20470;-65
2023/05/08 04:47:23;;;;;;;7.70;7.10;;;8.70;99.90;;;;;;4972302;28;20506;-65
2023/05/08 04:49:52;;;;;;;6.90;6.40;;;8.80;99.90;;;;;;4975614;28;20489;-65
2023/05/08 04:52:20;;;;;;;7.00;6.40;;;8.80;99.90;;;;;;4970446;28;20484;-65
2023/05/08 04:54:49;;;;;;;7.40;6.80;;;8.90;99.90;;;;;;4974926;28;20573;-65
2023/05/08 04:57:19;;;;;;;8.00;7.20;;;8.80;99.90;;;;;;4975484;28;20485;-65
2023/05/08 04:59:47;;;;;;;7.33;6.80;;;8.90;99.90;;;;;;4973285;28;20493;-66
2023/05/08 05:02:15;;;;;;;7.10;6.60;;;8.90;99.90;;;;;;4970799;28;20484;-67
2023/05/08 05:04:43;;;;;;;7.43;6.83;;;8.90;99.90;;;;;;4975104;28;20477;-66
2023/05/08 05:07:11;;;;;;;7.53;6.87;;;9.00;99.90;;;;;;4980474;28;20511;-65
2023/05/08 05:09:39;;;;;;;8.20;7.60;;;9.00;99.90;;;;;;4974284;28;21313;-66
2023/05/08 05:12:09;;;;;;;7.40;6.70;;;9.00;99.90;;;;;;4978331;28;20474;-66
2023/05/08 05:14:37;;;;;;;7.53;6.93;;;9.00;99.90;;;;;;4976332;28;20466;-66
2023/05/08 05:17:05;;;;;;;7.50;6.90;;;9.10;99.90;;;;;;4980192;28;20511;-65
2023/05/08 05:19:33;;;;;;;8.07;7.47;;;9.10;99.90;;;;;;4993650;28;20492;-68
2023/05/08 05:22:01;;;;;;;7.40;6.80;;;9.10;99.90;;;;;;4991182;28;20481;-66
2023/05/08 05:24:29;;;;;;;7.60;7.00;;;9.10;99.90;;;;;;4988268;28;20470;-67
2023/05/08 05:26:57;;;;;;;7.80;7.03;;;9.10;99.90;;;;;;4989090;28;20500;-66
2023/05/08 05:29:27;;;;;;;7.60;7.00;;;9.20;99.90;;;;;;4989710;28;21109;-68
2023/05/08 05:31:55;;;;;;;7.60;7.00;;;9.20;99.90;;;;;;4991759;28;20469;-68
2023/05/08 05:34:27;;;;;;;8.07;7.37;;;9.20;99.90;;;;;;5000220;28;20469;-67
2023/05/08 05:36:57;;;;;;;7.37;6.87;;;9.20;99.90;;;;;;4989371;28;20484;-70
2023/05/08 05:39:25;;;;;;;8.40;7.60;;;9.30;99.90;;;;;;4990904;28;20481;-66
2023/05/08 05:41:56;;;;;;;7.70;7.10;;;9.30;99.90;;;;;;4991948;28;20476;-70
2023/05/08 05:44:25;;;;;;;7.40;6.80;;;9.30;99.90;;;;;;4995925;28;20469;-67
2023/05/08 05:46:54;;;;;;;8.33;7.50;;;9.40;99.90;;;;;;4986416;28;20516;-67
2023/05/08 05:49:22;;;;;;;7.43;6.83;;;9.40;99.90;;;;;;4981179;28;20493;-67
2023/05/08 05:51:50;;;;;;;7.73;7.03;;;9.40;99.90;;;;;;5000528;28;20450;-68
2023/05/08 05:54:18;;;;;;;8.47;7.77;;;9.40;99.90;;;;;;5002396;28;20468;-67
2023/05/08 05:56:47;;;;;;;8.20;7.60;;;9.50;99.90;;;;;;5003532;28;20475;-67
2023/05/08 05:59:15;;;;;;;7.83;7.23;;;9.60;99.90;;;;;;5003915;28;20478;-67
2023/05/08 06:01:44;;;;;;;8.10;7.47;;;9.60;99.90;;;;;;5005971;28;20475;-67
2023/05/08 06:04:13;;;;;;;8.00;7.33;;;9.60;99.90;;;;;;5003494;28;20685;-66
2023/05/08 06:06:41;;;;;;;7.77;7.07;;;9.70;99.90;;;;;;4999459;28;21024;-66
2023/05/08 06:09:08;;;;;;;8.00;7.30;;;9.70;99.90;;;;;;4983054;28;20485;-66
2023/05/08 06:11:36;;;;;;;8.47;7.77;;;9.80;99.90;;;;;;4981537;28;20477;-66
2023/05/08 06:14:04;;;;;;;8.10;7.50;;;9.80;99.90;;;;;;4990567;28;20476;-66
2023/05/08 06:16:34;;;;;;;7.97;7.33;;;9.80;99.90;;;;;;4990594;28;20577;-66
2023/05/08 06:19:03;;;;;;;8.13;7.40;;;9.90;99.90;;;;;;4986974;28;20497;-65
2023/05/08 06:21:33;;;;;;;8.57;7.90;;;9.90;99.90;;;;;;4979473;28;20472;-66
2023/05/08 06:24:01;;;;;;;8.70;7.90;;;9.90;99.90;;;;;;4982129;28;20470;-65
2023/05/08 06:26:29;;;;;;;7.90;7.20;;;9.90;99.90;;;;;;4977481;28;21058;-66
2023/05/08 06:28:57;;;;;;;8.30;7.20;;;10.00;99.90;;;;;;4979456;28;20871;-66
2023/05/08 06:31:25;;;;;;;8.70;7.90;;;10.00;99.90;;;;;;4979873;28;20805;-65
2023/05/08 06:33:53;;;;;;;8.73;8.03;;;10.00;99.90;;;;;;4980578;28;20877;-66
2023/05/08 06:36:22;;;;;;;8.73;8.03;;;10.10;99.90;;;;;;4982022;28;20497;-66
2023/05/08 06:38:50;;;;;;;8.70;8.00;;;10.10;99.90;;;;;;4979152;28;20484;-66
2023/05/08 06:41:18;;;;;;;9.07;8.27;;;10.20;99.90;;;;;;4981671;28;20678;-66
2023/05/08 06:43:46;;;;;;;9.37;8.47;;;10.20;99.90;;;;;;4980137;28;20863;-67
2023/05/08 06:46:14;;;;;;;8.60;7.90;;;10.30;99.90;;;;;;4979492;28;21084;-66
2023/05/08 06:48:42;;;;;;;8.90;8.20;;;10.30;99.90;;;;;;4986943;28;20512;-67
2023/05/08 06:51:10;;;;;;;9.70;8.73;;;10.30;99.90;;;;;;4985971;28;20485;-67
2023/05/08 06:53:39;;;;;;;8.87;8.10;;;10.40;99.90;;;;;;4982625;28;20477;-67
2023/05/08 06:56:08;;;;;;;9.17;8.40;;;10.50;99.90;;;;;;4980534;28;20489;-67
2023/05/08 06:58:36;;;;;;;9.23;8.53;;;10.60;99.90;;;;;;4984647;28;20801;-67
2023/05/08 07:01:03;;;;;;;8.60;7.90;;;10.70;99.90;;;;;;4985190;28;20493;-67
2023/05/08 07:03:32;;;;;;;8.83;8.07;;;10.70;99.90;;;;;;4981817;28;20470;-67
2023/05/08 07:06:00;;;;;;;8.60;7.90;;;10.80;99.90;;;;;;4982696;28;20508;-67
2023/05/08 07:08:29;;;;;;;8.73;7.93;;;10.80;99.90;;;;;;4979845;28;20494;-67
2023/05/08 07:10:58;;;;;;;8.60;7.90;;;10.90;99.90;;;;;;4984766;28;20567;-67
2023/05/08 07:13:26;;;;;;;8.80;8.10;;;11.00;99.90;;;;;;4974223;28;20469;-67
2023/05/08 07:15:54;;;;;;;9.40;8.70;;;11.00;99.90;;;;;;4986092;28;20528;-67
2023/05/08 07:18:22;;;;;;;7.90;7.30;;;11.00;99.90;;;;;;4980816;28;20492;-67
2023/05/08 07:20:51;;;;;;;9.50;8.60;;;11.00;99.90;;;;;;4978954;28;20564;-67
2023/05/08 07:23:19;;;;;;;9.23;8.53;;;11.10;99.90;;;;;;4977989;28;20474;-67
2023/05/08 07:25:47;;;;;;;9.97;9.10;;;11.20;99.90;;;;;;4982068;28;20497;-67
2023/05/08 07:28:16;;;;;;;9.00;8.30;;;11.20;99.90;;;;;;4983002;28;20501;-67
2023/05/08 07:30:44;;;;;;;9.07;8.37;;;11.20;99.90;;;;;;4986674;28;20473;-67
2023/05/08 07:33:12;;;;;;;10.13;8.87;;;11.20;99.90;;;;;;4983822;28;20527;-67
2023/05/08 07:35:41;;;;;;;9.93;9.13;;;11.30;99.90;;;;;;4979645;28;20568;-67
2023/05/08 07:38:09;;;;;;;8.77;8.10;;;11.30;99.90;;;;;;4988152;28;20473;-66
2023/05/08 07:40:37;;;;;;;8.90;8.17;;;11.40;99.90;;;;;;4988312;28;20467;-67
2023/05/08 07:43:05;;;;;;;8.73;8.03;;;11.40;99.90;;;;;;4980441;28;20561;-67
2023/05/08 07:45:35;;;;;;;8.73;7.93;;;11.50;99.90;;;;;;4982023;28;20873;-67
2023/05/08 07:48:04;;;;;;;8.93;8.13;;;11.60;99.90;;;;;;4975127;28;20496;-67
2023/05/08 07:50:33;;;;;;;10.03;9.23;;;11.70;99.90;;;;;;4980090;28;20516;-67
2023/05/08 07:53:01;;;;;;;9.43;8.63;;;11.70;99.90;;;;;;4980343;28;20544;-67
2023/05/08 07:55:29;;;;;;;8.97;8.30;;;11.80;99.90;;;;;;4982560;28;20478;-67
2023/05/08 07:57:57;;;;;;;10.37;9.30;;;11.90;99.90;;;;;;4980192;28;20472;-66
2023/05/08 08:00:26;;;;;;;10.10;9.30;;;12.00;99.90;;;;;;4982595;28;20488;-67
2023/05/08 08:02:56;;;;;;;10.20;9.40;;;12.10;99.90;;;;;;4983051;28;20492;-67
2023/05/08 08:05:24;;;;;;;10.27;9.23;;;12.20;99.90;;;;;;4981566;28;21063;-68
2023/05/08 08:07:52;;;;;;;9.53;8.73;;;12.30;99.90;;;;;;4981020;28;20492;-67
2023/05/08 08:10:20;;;;;;;9.53;8.63;;;12.40;99.90;;;;;;4982338;28;20488;-67
2023/05/08 08:12:48;;;;;;;9.43;8.73;;;12.50;99.90;;;;;;4981629;28;21575;-67
2023/05/08 08:15:16;;;;;;;9.30;8.60;;;12.60;99.90;;;;;;4976195;28;21126;-67
2023/05/08 08:17:44;;;;;;;9.70;8.80;;;12.70;99.90;;;;;;4980629;28;20487;-66
2023/05/08 08:20:13;;;;;;;10.60;9.80;;;12.80;99.90;;;;;;4982358;28;20539;-67
2023/05/08 08:22:41;;;;;;;9.60;8.80;;;12.90;99.90;;;;;;4980159;28;20474;-67
2023/05/08 08:25:10;;;;;;;10.07;9.17;;;13.00;99.90;;;;;;4983903;28;20469;-66
2023/05/08 08:27:41;;;;;;;11.10;10.10;;;13.10;99.90;;;;;;4981786;28;20502;-66
2023/05/08 08:30:09;;;;;;;10.53;9.67;;;13.20;99.90;;;;;;4981204;28;20580;-66
2023/05/08 08:32:45;;;;;;;9.87;9.00;;;13.20;99.90;;;;;;4978928;28;20461;-69
2023/05/08 08:35:15;;;;;;;10.27;9.40;;;13.30;99.90;;;;;;4984588;28;20543;-66
2023/05/08 08:37:44;;;;;;;9.60;8.90;;;13.40;99.90;;;;;;4981206;28;20524;-67
2023/05/08 08:40:12;;;;;;;9.50;8.70;;;13.50;99.90;;;;;;4982723;28;20523;-67
2023/05/08 08:42:40;;;;;;;9.70;9.00;;;13.70;99.90;;;;;;4971099;28;20477;-65
2023/05/08 08:45:09;;;;;;;12.70;11.60;;;13.90;99.90;;;;;;4984241;28;20477;-66
2023/05/08 08:47:38;;;;;;;10.43;9.50;;;14.00;99.90;;;;;;4981297;28;20525;-66
2023/05/08 08:50:09;;;;;;;10.50;9.70;;;14.10;99.90;;;;;;4981113;28;20494;-65
2023/05/08 08:52:53;;;;;;;10.00;9.00;;;14.20;99.90;;;;;;4981012;28;20481;-67
2023/05/08 08:55:23;;;;;;;9.27;8.50;;;14.30;99.90;;;;;;4980959;28;21093;-66
2023/05/08 08:58:03;;;;;;;9.50;8.80;;;14.30;99.90;;;;;;4983322;28;20471;-68
2023/05/08 09:00:31;;;;;;;8.80;8.10;;;14.30;99.90;;;;;;4978576;28;20486;-67
2023/05/08 09:03:00;;;;;;;9.70;8.87;;;14.30;99.90;;;;;;4980943;28;20822;-67
2023/05/08 09:05:29;;;;;;;9.80;9.00;;;14.30;99.90;;;;;;4981429;28;20852;-68
2023/05/08 09:07:59;;;;;;;9.37;8.67;;;14.20;99.90;;;;;;4982584;28;20489;-66
2023/05/08 09:10:27;;;;;;;9.03;8.40;;;14.20;99.90;;;;;;4982623;28;21040;-66
2023/05/08 09:12:55;;;;;;;9.70;8.80;;;14.30;99.90;;;;;;4979735;28;20482;-66
2023/05/08 09:15:23;;;;;;;8.73;8.00;;;14.30;99.90;;;;;;4981550;28;20474;-66
2023/05/08 09:17:51;;;;;;;9.50;8.70;;;14.30;99.90;;;;;;4980558;28;20470;-67
2023/05/08 09:20:19;;;;;;;9.50;8.70;;;14.40;99.90;;;;;;4981379;28;20999;-68
2023/05/08 09:22:48;;;;;;;8.90;8.20;;;14.40;99.90;;;;;;4981641;28;20475;-66
2023/05/08 09:25:18;;;;;;;9.03;8.33;;;14.40;99.90;;;;;;4982949;28;20478;-66
2023/05/08 09:27:46;;;;;;;9.43;8.73;;;14.40;99.90;;;;;;4980308;28;20572;-66
2023/05/08 09:30:14;;;;;;;8.70;8.00;;;14.40;99.90;;;;;;4979992;28;20864;-66
2023/05/08 09:32:43;;;;;;;8.80;8.10;;;14.40;99.90;;;;;;4982926;28;21001;-65
2023/05/08 09:35:12;;;;;;;9.40;8.60;;;14.40;99.90;;;;;;4979778;28;20538;-66
2023/05/08 09:37:42;;;;;;;8.20;7.57;;;14.40;99.90;;;;;;4979562;28;20573;-65
2023/05/08 09:40:15;;;;;;;9.00;8.30;;;14.40;99.90;;;;;;4980685;28;20493;-66
2023/05/08 09:42:44;;;;;;;8.10;7.50;;;14.40;99.90;;;;;;4979395;28;20470;-67
2023/05/08 09:45:26;;;;;;;8.80;8.00;;;14.30;99.90;;;;;;4979949;28;20477;-65
2023/05/08 09:47:55;;;;;;;8.17;7.50;;;14.30;99.90;;;;;;4980668;28;20481;-67
2023/05/08 09:50:24;;;;;;;8.73;8.10;;;14.40;99.90;;;;;;4979506;28;20492;-68
2023/05/08 09:52:52;;;;;;;8.43;7.67;;;14.40;99.90;;;;;;4981461;28;20560;-67
2023/05/08 09:55:20;;;;;;;7.83;7.03;;;14.50;99.90;;;;;;4974925;28;20826;-66
2023/05/08 09:57:57;;;;;;;7.93;7.30;;;14.60;99.90;;;;;;4978611;28;20465;-66
2023/05/08 10:00:26;;;;;;;7.50;6.90;;;14.70;99.90;;;;;;4980125;28;20481;-66
2023/05/08 10:02:56;;;;;;;8.17;7.50;;;14.80;99.90;;;;;;4977588;28;20484;-67
2023/05/08 10:05:26;;;;;;;7.50;7.00;;;15.00;99.90;;;;;;4979722;28;20485;-67
2023/05/08 10:07:54;;;;;;;7.57;7.00;;;15.10;99.90;;;;;;4979321;28;21081;-66
2023/05/08 10:10:26;;;;;;;7.67;6.87;;;15.20;99.90;;;;;;4977741;28;20872;-67
2023/05/08 10:12:57;;;;;;;7.17;6.67;;;15.40;99.90;;;;;;4978286;28;20473;-67
2023/05/08 10:15:29;;;;;;;8.03;7.43;;;15.50;99.90;;;;;;4976866;28;20771;-65
2023/05/08 10:18:03;;;;;;;7.57;6.97;;;15.60;99.90;;;;;;4979853;28;20484;-67
2023/05/08 10:20:33;;;;;;;7.53;7.00;;;15.60;99.90;;;;;;4979504;28;20497;-65
2023/05/08 10:23:03;;;;;;;7.10;6.50;;;15.60;99.90;;;;;;4977291;28;20476;-67
2023/05/08 10:25:33;;;;;;;7.77;7.07;;;15.60;99.90;;;;;;4979600;28;20497;-67
2023/05/08 10:28:10;;;;;;;7.30;6.80;;;15.60;99.90;;;;;;4978283;28;20485;-68
2023/05/08 10:30:43;;;;;;;7.60;7.00;;;15.50;99.90;;;;;;4974128;28;20502;-66
2023/05/08 10:33:14;;;;;;;7.27;6.57;;;15.60;99.90;;;;;;4980859;28;20512;-67
2023/05/08 10:35:42;;;;;;;6.80;6.30;;;15.60;99.90;;;;;;4979376;28;20849;-66
2023/05/08 10:38:11;;;;;;;6.80;6.20;;;15.60;99.90;;;;;;4978700;28;20849;-67
2023/05/08 10:40:40;;;;;;;6.60;6.10;;;15.60;99.90;;;;;;4977467;28;20468;-65
2023/05/08 10:43:09;;;;;;;6.70;6.30;;;15.80;99.90;;;;;;4979804;28;20481;-68
2023/05/08 10:45:38;;;;;;;6.13;5.63;;;15.90;99.90;;;;;;4978216;28;20986;-69
2023/05/08 10:48:20;;;;;;;6.27;5.67;;;16.10;99.90;;;;;;4981082;28;20759;-66
2023/05/08 10:50:58;;;;;;;5.90;5.50;;;16.30;99.90;;;;;;4974596;28;20493;-67
2023/05/08 10:53:34;;;;;;;6.50;6.00;;;16.50;99.90;;;;;;4976738;28;20473;-67
2023/05/08 10:56:03;;;;;;;6.70;6.00;;;16.60;99.90;;;;;;4979516;28;20493;-66
2023/05/08 10:58:34;;;;;;;6.60;6.10;;;16.80;99.90;;;;;;4978503;28;21175;-67
2023/05/08 11:01:18;;;;;;;6.03;5.63;;;16.90;99.90;;;;;;4978798;28;20957;-66
2023/05/08 11:03:50;;;;;;;7.00;6.50;;;17.00;99.90;;;;;;4974983;28;21001;-66
2023/05/08 11:06:39;;;;;;;6.10;5.50;;;17.10;99.90;;;;;;4974135;28;20506;-65
2023/05/08 11:09:07;;;;;;;6.17;5.67;;;17.10;99.90;;;;;;4974518;28;20485;-66
2023/05/08 11:11:38;;;;;;;5.80;5.40;;;17.20;99.90;;;;;;4980701;28;20474;-65
2023/05/08 11:14:16;;;;;;;5.93;5.47;;;17.30;99.90;;;;;;4979290;28;20469;-65
2023/05/08 11:17:03;;;;;;;5.97;5.53;;;17.50;99.90;;;;;;4976853;28;20898;-65
2023/05/08 11:19:33;;;;;;;4.67;4.37;;;17.70;99.90;;;;;;4971281;28;20500;-64
2023/05/08 11:22:31;;;;;;;7.63;4.90;;;17.90;99.90;;;;;;4972699;28;20808;-65
2023/05/08 11:25:02;;;;;;;5.60;5.10;;;18.10;99.90;;;;;;4910042;29;20912;-67
2023/05/08 11:27:38;;;;;;;5.50;5.10;;;18.20;99.90;;;;;;4955788;28;20500;-68
2023/05/08 11:30:35;;;;;;;5.37;4.97;;;18.30;99.90;;;;;;4977359;28;20587;-67
2023/05/08 11:33:17;;;;;;;4.87;4.43;;;18.20;99.90;;;;;;4974754;28;20483;-67
2023/05/08 11:35:50;;;;;;;5.17;4.80;;;18.20;99.90;;;;;;4971698;28;21039;-68
2023/05/08 11:38:24;;;;;;;5.53;5.00;;;18.30;99.90;;;;;;4973984;28;20523;-66
2023/05/08 11:40:57;;;;;;;4.77;4.37;;;18.40;99.90;;;;;;4981441;28;20492;-68
2023/05/08 11:43:47;;;;;;;5.00;4.70;;;18.50;99.90;;;;;;4973273;28;20802;-66
2023/05/08 11:46:19;;;;;;;4.40;4.10;;;18.60;99.90;;;;;;4978261;28;20503;-68
2023/05/08 11:48:48;;;;;;;4.20;3.90;;;18.80;93.30;;;;;;4966902;28;20554;-67
2023/05/08 11:51:18;;;;;;;4.70;4.30;;;18.80;91.40;;;;;;4971743;28;20494;-67
2023/05/08 11:53:46;;;;;;;4.17;3.83;;;18.70;84.90;;;;;;4973470;28;22571;-69
2023/05/08 11:56:14;;;;;;;4.23;3.93;;;18.70;89.90;;;;;;4968001;28;20493;-68
2023/05/08 11:58:42;;;;;;;3.97;3.63;;;18.80;98.80;;;;;;4977046;28;20492;-68
2023/05/08 12:01:10;;;;;;;4.17;3.90;;;18.90;99.20;;;;;;4975009;28;20481;-71
2023/05/08 12:03:43;;;;;;;4.30;4.00;;;19.10;85.50;;;;;;4973436;28;20476;-68
2023/05/08 12:06:11;;;;;;;5.37;3.50;;;19.20;70.80;;;;;;4978966;28;20580;-71
2023/05/08 12:08:39;;;;;;;3.87;3.47;;;19.20;74.80;;;;;;4974221;28;20492;-69
2023/05/08 12:11:07;;;;;;;4.50;4.10;;;19.30;65.20;;;;;;4975125;28;20497;-69
2023/05/08 12:13:35;;;;;;;3.20;3.00;;;19.40;68.20;;;;;;4973260;28;20994;-67
2023/05/08 12:16:03;;;;;;;3.73;3.47;;;19.60;66.30;;;;;;4973946;28;20591;-68
2023/05/08 12:18:31;;;;;;;3.67;3.37;;;19.70;60.30;;;;;;4975201;28;20527;-70
2023/05/08 12:21:01;;;;;;;4.10;3.80;;;19.90;66.00;;;;;;4970768;28;20557;-67
2023/05/08 12:23:29;;;;;;;3.67;3.37;;;20.10;60.00;;;;;;4976147;28;20466;-64
2023/05/08 12:25:59;;;;;;;3.30;3.10;;;20.20;60.90;;;;;;4979201;28;20489;-66
2023/05/08 12:28:28;;;;;;;4.23;3.30;;;20.30;72.00;;;;;;4972811;28;20472;-65
2023/05/08 12:30:56;;;;;;;3.30;3.00;;;20.60;58.40;;;;;;4973235;28;20505;-65
2023/05/08 12:33:25;;;;;;;3.10;2.90;;;20.70;53.40;;;;;;4979922;28;20478;-65
2023/05/08 12:35:53;;;;;;;3.30;3.00;;;20.80;51.50;;;;;;4976378;28;20488;-66
2023/05/08 12:38:26;;;;;;;2.90;2.60;;;20.80;48.50;;;;;;4974828;28;20477;-66
2023/05/08 12:40:55;;;;;;;3.73;3.43;;;20.90;49.60;;;;;;4976289;28;20917;-66
2023/05/08 12:43:31;;;;;;;3.00;2.80;;;21.10;56.10;;;;;;4977477;28;20480;-65
2023/05/08 12:45:59;;;;;;;4.93;3.07;;;21.30;47.40;;;;;;4976904;28;20612;-64
2023/05/08 12:48:28;;;;;;;3.63;3.33;;;21.40;47.10;;;;;;4977609;28;20577;-65
2023/05/08 12:51:02;;;;;;;3.23;2.80;;;21.50;49.10;;;;;;4972751;28;20877;-64
2023/05/08 12:53:32;;;;;;;4.70;3.07;;;21.60;49.50;;;;;;4975027;28;20472;-65
2023/05/08 12:56:02;;;;;;;3.00;2.80;;;21.70;49.70;;;;;;4978206;28;20504;-65
2023/05/08 12:58:32;;;;;;;3.80;3.17;;;21.70;48.10;;;;;;4974185;28;20804;-65
2023/05/08 13:01:08;;;;;;;3.57;3.00;;;21.60;46.30;;;;;;4977745;28;20472;-65
2023/05/08 13:03:37;;;;;;;3.63;3.40;;;21.50;49.40;;;;;;4977534;28;20477;-65
2023/05/08 13:06:06;;;;;;;3.73;3.43;;;21.50;47.10;;;;;;4980503;28;21060;-65
2023/05/08 13:08:37;;;;;;;3.70;3.40;;;21.40;45.80;;;;;;4977276;28;20489;-65